Time;durP1;ratioP1;P1;durP2;ratioP2;P2;SDS_P1;SDS_P2;PMS_P1;PMS_P2;Temp;Humidity;BMP_temperature;BMP_pressure;BME280_temperature;BME280_humidity;BME280_pressure;Samples;Min_cycle;Max_cycle;Signal;HPM_P1;HPM_P2
2021/09/10 00:01:41;;;;;;;;;;;20.00;72.50;;;;;;5010298;28;19910;-72
2021/09/10 00:04:44;;;;;;;;;;;20.00;72.80;;;;;;5010321;28;19917;-73
2021/09/10 00:07:50;;;;;;;;;;;19.80;74.60;;;;;;5012001;28;19925;-72
2021/09/10 00:10:54;;;;;;;;;;;19.80;77.70;;;;;;5016857;28;19916;-72
2021/09/10 00:13:58;;;;;;;;;;;19.60;78.80;;;;;;5016999;28;19913;-72
2021/09/10 00:17:02;;;;;;;;;;;19.50;80.80;;;;;;5016981;28;19909;-72
2021/09/10 00:20:06;;;;;;;;;;;19.30;82.10;;;;;;5016700;28;19913;-73
2021/09/10 00:23:10;;;;;;;;;;;19.10;83.60;;;;;;5017021;28;19916;-73
2021/09/10 00:26:14;;;;;;;;;;;19.10;85.10;;;;;;5016632;28;19910;-72
2021/09/10 00:29:18;;;;;;;;;;;18.90;87.20;;;;;;5016950;28;20376;-72
2021/09/10 00:32:22;;;;;;;;;;;18.70;90.60;;;;;;5016420;28;19932;-72
2021/09/10 00:35:27;;;;;;;;;;;18.60;91.60;;;;;;5016516;28;19913;-72
2021/09/10 00:38:31;;;;;;;;;;;18.40;91.70;;;;;;5016932;28;19913;-72
2021/09/10 00:41:35;;;;;;;;;;;18.40;92.20;;;;;;5016280;28;19913;-72
2021/09/10 00:44:39;;;;;;;;;;;18.40;93.30;;;;;;5016759;28;19913;-72
2021/09/10 00:47:43;;;;;;;;;;;18.30;94.20;;;;;;5016685;28;20013;-73
2021/09/10 00:50:48;;;;;;;;;;;18.30;94.80;;;;;;5016441;28;19909;-72
2021/09/10 00:53:52;;;;;;;;;;;18.30;95.00;;;;;;5016578;28;19913;-72
2021/09/10 00:56:57;;;;;;;;;;;18.30;95.40;;;;;;5016460;28;19909;-72
2021/09/10 01:00:00;;;;;;;;;;;18.30;95.60;;;;;;5015601;28;19913;-72
2021/09/10 01:03:04;;;;;;;;;;;18.30;94.90;;;;;;5016318;28;19910;-72
2021/09/10 01:06:09;;;;;;;;;;;18.30;95.20;;;;;;5016256;28;19936;-72
2021/09/10 01:09:14;;;;;;;;;;;18.30;95.40;;;;;;5016798;28;20208;-73
2021/09/10 01:12:18;;;;;;;;;;;18.30;96.10;;;;;;5016223;28;19913;-72
2021/09/10 01:15:23;;;;;;;;;;;18.20;96.60;;;;;;5016299;28;19910;-72
2021/09/10 01:18:27;;;;;;;;;;;18.20;98.10;;;;;;5016471;28;19917;-72
2021/09/10 01:21:31;;;;;;;;;;;18.10;98.70;;;;;;5012942;28;19916;-72
2021/09/10 01:24:40;;;;;;;;;;;18.10;99.90;;;;;;5013365;28;20386;-72
2021/09/10 01:27:49;;;;;;;;;;;18.00;99.90;;;;;;5013349;28;19914;-72
2021/09/10 01:30:53;;;;;;;;;;;17.90;99.90;;;;;;5012763;28;19917;-72
2021/09/10 01:33:57;;;;;;;;;;;17.80;99.90;;;;;;5013206;28;19917;-72
2021/09/10 01:37:01;;;;;;;;;;;17.70;99.70;;;;;;5012855;28;19913;-72
2021/09/10 01:40:05;;;;;;;;;;;17.70;99.40;;;;;;5013003;28;20447;-72
2021/09/10 01:43:10;;;;;;;;;;;17.70;99.50;;;;;;5013329;28;20296;-73
2021/09/10 01:46:16;;;;;;;;;;;17.80;99.50;;;;;;5012960;28;19921;-72
2021/09/10 01:49:19;;;;;;;;;;;17.80;99.90;;;;;;5011557;28;19921;-72
2021/09/10 01:52:24;;;;;;;;;;;17.80;99.90;;;;;;5010221;28;19909;-72
2021/09/10 01:55:32;;;;;;;;;;;17.80;99.90;;;;;;5012788;28;19909;-72
2021/09/10 01:58:36;;;;;;;;;;;17.80;99.90;;;;;;5012692;28;20360;-72
2021/09/10 02:01:40;;;;;;;;;;;17.80;99.90;;;;;;5012482;28;19910;-72
2021/09/10 02:04:44;;;;;;;;;;;17.80;99.90;;;;;;5011959;28;19920;-73
2021/09/10 02:07:48;;;;;;;;;;;17.90;99.90;;;;;;5011866;28;20272;-72
2021/09/10 02:10:52;;;;;;;;;;;18.00;99.90;;;;;;5012417;28;19910;-72
2021/09/10 02:13:56;;;;;;;;;;;17.90;99.90;;;;;;5012471;28;19914;-72
2021/09/10 02:17:00;;;;;;;;;;;17.90;99.90;;;;;;5012503;28;19913;-72
2021/09/10 02:20:05;;;;;;;;;;;17.90;99.90;;;;;;5012456;28;19913;-72
2021/09/10 02:23:09;;;;;;;;;;;17.80;99.90;;;;;;5012127;28;19909;-72
2021/09/10 02:26:13;;;;;;;;;;;17.70;99.90;;;;;;4992737;28;19909;-72
2021/09/10 02:29:17;;;;;;;;;;;17.70;99.90;;;;;;4992825;28;19913;-72
2021/09/10 02:32:20;;;;;;;;;;;17.60;99.90;;;;;;4991884;28;19914;-72
2021/09/10 02:35:24;;;;;;;;;;;17.50;99.90;;;;;;4992589;28;20277;-73
2021/09/10 02:38:28;;;;;;;;;;;17.40;99.90;;;;;;4992285;28;20292;-72
2021/09/10 02:41:35;;;;;;;;;;;17.30;99.90;;;;;;4992115;28;20393;-72
2021/09/10 02:44:39;;;;;;;;;;;17.10;99.90;;;;;;4992512;28;19910;-72
2021/09/10 02:47:43;;;;;;;;;;;17.20;99.90;;;;;;4991868;28;19914;-72
2021/09/10 02:50:49;;;;;;;;;;;17.20;99.90;;;;;;4992016;28;19913;-72
2021/09/10 02:53:54;;;;;;;;;;;17.10;99.90;;;;;;4992051;28;19935;-72
2021/09/10 02:56:58;;;;;;;;;;;17.00;99.90;;;;;;5010696;28;19909;-72
2021/09/10 03:00:04;;;;;;;;;;;17.00;99.90;;;;;;5000662;28;19913;-72
2021/09/10 03:03:13;;;;;;;;;;;17.00;99.90;;;;;;5011139;28;19914;-73
2021/09/10 03:06:18;;;;;;;;;;;17.00;99.90;;;;;;5011389;28;19913;-72
2021/09/10 03:09:22;;;;;;;;;;;17.00;99.90;;;;;;5011482;28;20316;-72
2021/09/10 03:12:26;;;;;;;;;;;16.90;99.90;;;;;;5011359;28;19916;-72
2021/09/10 03:15:30;;;;;;;;;;;16.90;99.90;;;;;;5011264;28;19913;-72
2021/09/10 03:18:36;;;;;;;;;;;16.80;99.90;;;;;;5010772;28;20299;-72
2021/09/10 03:21:40;;;;;;;;;;;16.70;99.90;;;;;;5010745;28;19909;-72
2021/09/10 03:24:43;;;;;;;;;;;16.70;99.90;;;;;;5011246;28;19906;-72
2021/09/10 03:27:48;;;;;;;;;;;16.70;99.90;;;;;;5011016;28;19909;-72
2021/09/10 03:30:52;;;;;;;;;;;16.70;99.90;;;;;;5010502;28;19909;-72
2021/09/10 03:33:56;;;;;;;;;;;16.60;99.90;;;;;;5010934;28;19906;-72
2021/09/10 03:37:00;;;;;;;;;;;16.60;99.90;;;;;;5011031;28;19917;-72
2021/09/10 03:40:05;;;;;;;;;;;16.60;99.90;;;;;;5010891;28;19917;-72
2021/09/10 03:43:09;;;;;;;;;;;16.60;99.90;;;;;;5009726;28;19936;-72
2021/09/10 03:46:13;;;;;;;;;;;16.60;99.90;;;;;;5010710;28;19913;-72
2021/09/10 03:49:17;;;;;;;;;;;16.50;99.90;;;;;;5010559;28;19913;-72
2021/09/10 03:52:21;;;;;;;;;;;16.50;99.90;;;;;;5010280;28;19913;-72
2021/09/10 03:55:25;;;;;;;;;;;16.50;99.90;;;;;;5010788;28;19920;-73
2021/09/10 03:58:29;;;;;;;;;;;16.60;99.90;;;;;;5010109;28;19914;-72
2021/09/10 04:01:32;;;;;;;;;;;16.60;99.90;;;;;;5010426;28;19909;-72
2021/09/10 04:04:37;;;;;;;;;;;16.50;99.90;;;;;;5010571;28;20463;-72
2021/09/10 04:07:43;;;;;;;;;;;16.50;99.90;;;;;;5010393;28;19913;-72
2021/09/10 04:10:48;;;;;;;;;;;16.50;99.90;;;;;;5010535;28;19909;-72
2021/09/10 04:13:52;;;;;;;;;;;16.50;99.90;;;;;;5010713;28;19910;-72
2021/09/10 04:16:56;;;;;;;;;;;16.50;99.90;;;;;;5010887;28;20360;-72
2021/09/10 04:20:00;;;;;;;;;;;16.50;99.90;;;;;;5010751;28;19917;-72
2021/09/10 04:23:04;;;;;;;;;;;16.40;99.90;;;;;;5010111;28;19909;-73
2021/09/10 04:26:08;;;;;;;;;;;16.30;99.90;;;;;;5010698;28;19914;-72
2021/09/10 04:29:12;;;;;;;;;;;16.20;99.90;;;;;;5010322;28;19920;-72
2021/09/10 04:32:16;;;;;;;;;;;16.20;99.90;;;;;;5009484;28;19910;-73
2021/09/10 04:35:20;;;;;;;;;;;16.20;99.90;;;;;;5010422;28;19909;-72
2021/09/10 04:38:24;;;;;;;;;;;16.20;99.90;;;;;;5010053;28;19914;-72
2021/09/10 04:41:28;;;;;;;;;;;16.20;99.90;;;;;;5010268;28;19913;-72
2021/09/10 04:44:33;;;;;;;;;;;16.20;99.90;;;;;;5010242;28;19909;-72
2021/09/10 04:47:37;;;;;;;;;;;16.30;99.90;;;;;;5010429;28;19917;-72
2021/09/10 04:50:40;;;;;;;;;;;15.60;99.90;;;;;;5010163;28;19913;-73
2021/09/10 04:53:44;;;;;;;;;;;15.30;99.90;;;;;;5010569;28;19913;-72
2021/09/10 04:56:48;;;;;;;;;;;15.20;99.90;;;;;;5013691;28;19910;-72
2021/09/10 04:59:53;;;;;;;;;;;15.10;99.90;;;;;;5013684;28;19913;-72
2021/09/10 05:02:57;;;;;;;;;;;15.10;99.90;;;;;;5013199;28;19913;-72
2021/09/10 05:06:01;;;;;;;;;;;15.20;99.90;;;;;;5013743;28;19909;-72
2021/09/10 05:09:05;;;;;;;;;;;15.30;99.90;;;;;;5013458;28;20230;-72
2021/09/10 05:12:10;;;;;;;;;;;15.40;99.90;;;;;;5013094;28;19909;-72
2021/09/10 05:15:13;;;;;;;;;;;15.50;99.90;;;;;;5013976;28;19909;-72
2021/09/10 05:18:17;;;;;;;;;;;15.60;99.90;;;;;;5014298;28;19976;-73
2021/09/10 05:21:21;;;;;;;;;;;15.70;99.90;;;;;;5013732;28;19913;-72
2021/09/10 05:24:25;;;;;;;;;;;15.90;99.90;;;;;;5014255;28;19913;-72
2021/09/10 05:27:29;;;;;;;;;;;16.20;99.90;;;;;;5014500;28;19909;-73
2021/09/10 05:30:33;;;;;;;;;;;16.50;99.90;;;;;;5013364;28;19913;-73
2021/09/10 05:33:37;;;;;;;;;;;16.60;99.90;;;;;;5013114;28;19913;-73
2021/09/10 05:36:41;;;;;;;;;;;16.80;99.90;;;;;;5014144;28;19909;-73
2021/09/10 05:39:45;;;;;;;;;;;17.30;99.90;;;;;;5013551;28;19917;-73
2021/09/10 05:42:49;;;;;;;;;;;18.90;99.90;;;;;;5013143;28;19913;-73
2021/09/10 05:45:54;;;;;;;;;;;20.80;99.90;;;;;;5013484;28;19910;-74
2021/09/10 05:48:58;;;;;;;;;;;22.50;99.90;;;;;;5012798;28;19917;-73
2021/09/10 05:52:02;;;;;;;;;;;23.50;98.50;;;;;;5012763;28;20276;-73
2021/09/10 05:55:08;;;;;;;;;;;24.70;96.00;;;;;;5013580;28;19913;-73
2021/09/10 05:58:14;;;;;;;;;;;25.60;94.20;;;;;;5013166;28;20264;-73
2021/09/10 06:01:17;;;;;;;;;;;25.90;92.40;;;;;;5012364;28;19910;-73
2021/09/10 06:04:22;;;;;;;;;;;26.60;91.40;;;;;;5013380;28;19913;-73
2021/09/10 06:07:26;;;;;;;;;;;27.50;90.00;;;;;;5014872;28;20252;-73
2021/09/10 06:10:30;;;;;;;;;;;27.90;86.50;;;;;;5014788;28;19909;-73
2021/09/10 06:13:34;;;;;;;;;;;28.10;85.10;;;;;;5012725;28;19910;-73
2021/09/10 06:16:38;;;;;;;;;;;28.30;84.00;;;;;;5014018;28;20268;-74
2021/09/10 06:19:43;;;;;;;;;;;28.80;82.10;;;;;;5011688;28;19913;-73
2021/09/10 06:22:47;;;;;;;;;;;28.60;81.00;;;;;;5012629;28;20245;-73
2021/09/10 06:25:51;;;;;;;;;;;28.70;80.20;;;;;;5014368;28;19913;-73
2021/09/10 06:28:57;;;;;;;;;;;29.50;79.50;;;;;;5024557;28;20227;-73
2021/09/10 06:32:01;;;;;;;;;;;27.30;80.60;;;;;;5029312;28;19909;-73
2021/09/10 06:35:05;;;;;;;;;;;26.80;82.70;;;;;;5018742;28;19913;-73
2021/09/10 06:38:09;;;;;;;;;;;28.10;80.80;;;;;;5019254;28;19924;-73
2021/09/10 06:41:14;;;;;;;;;;;29.20;79.50;;;;;;5010486;28;19909;-73
2021/09/10 06:44:19;;;;;;;;;;;30.20;76.70;;;;;;5011911;28;19913;-71
2021/09/10 06:47:23;;;;;;;;;;;30.40;75.80;;;;;;4992219;28;19921;-70
2021/09/10 06:50:27;;;;;;;;;;;30.80;73.60;;;;;;4991897;28;19914;-71
2021/09/10 06:53:33;;;;;;;;;;;30.80;72.00;;;;;;4992259;28;19910;-71
2021/09/10 06:56:37;;;;;;;;;;;31.10;69.10;;;;;;5008222;28;19910;-71
2021/09/10 06:59:41;;;;;;;;;;;31.40;68.00;;;;;;5012536;28;19929;-71
2021/09/10 07:02:45;;;;;;;;;;;31.50;67.70;;;;;;5011748;28;19940;-70
2021/09/10 07:05:48;;;;;;;;;;;31.70;67.60;;;;;;4993118;28;19910;-71
2021/09/10 07:08:52;;;;;;;;;;;31.50;68.10;;;;;;4992551;28;19917;-71
2021/09/10 07:11:56;;;;;;;;;;;31.10;69.70;;;;;;4991577;28;19914;-71
2021/09/10 07:15:02;;;;;;;;;;;31.10;68.80;;;;;;4992569;28;19910;-71
2021/09/10 07:18:07;;;;;;;;;;;30.50;70.20;;;;;;5021556;28;19909;-71
2021/09/10 07:21:10;;;;;;;;;;;29.10;70.00;;;;;;5010456;28;19913;-71
2021/09/10 07:24:15;;;;;;;;;;;29.40;71.00;;;;;;5011271;28;19924;-71
2021/09/10 07:27:19;;;;;;;;;;;30.00;71.60;;;;;;5014616;28;19916;-74
2021/09/10 07:30:25;;;;;;;;;;;30.30;71.20;;;;;;5010787;28;19917;-71
2021/09/10 07:33:29;;;;;;;;;;;30.00;69.60;;;;;;5027006;28;19909;-71
2021/09/10 07:36:33;;;;;;;;;;;29.50;70.30;;;;;;5026780;28;19913;-71
2021/09/10 07:39:37;;;;;;;;;;;28.80;71.60;;;;;;5030372;28;19917;-71
2021/09/10 07:42:41;;;;;;;;;;;29.90;71.80;;;;;;5020858;28;19909;-71
2021/09/10 07:45:45;;;;;;;;;;;31.40;69.30;;;;;;5016750;28;19917;-71
2021/09/10 07:48:49;;;;;;;;;;;30.70;69.30;;;;;;5030259;28;19913;-71
2021/09/10 07:51:54;;;;;;;;;;;31.60;69.10;;;;;;5024031;28;19913;-71
2021/09/10 07:54:58;;;;;;;;;;;30.80;68.80;;;;;;5028106;28;19928;-71
2021/09/10 07:58:02;;;;;;;;;;;30.00;69.50;;;;;;5030585;28;19913;-70
2021/09/10 08:01:06;;;;;;;;;;;29.40;72.00;;;;;;5008461;28;19913;-71
2021/09/10 08:04:11;;;;;;;;;;;30.90;71.00;;;;;;5010828;28;19913;-74
2021/09/10 08:07:14;;;;;;;;;;;32.50;68.80;;;;;;5010848;28;19921;-71
2021/09/10 08:10:19;;;;;;;;;;;32.40;66.50;;;;;;5002053;28;19985;-71
2021/09/10 08:13:22;;;;;;;;;;;33.50;66.90;;;;;;5009878;28;19913;-74
2021/09/10 08:16:26;;;;;;;;;;;32.20;68.00;;;;;;5011536;28;19909;-74
2021/09/10 08:19:30;;;;;;;;;;;32.40;65.60;;;;;;4998859;28;19922;-71
2021/09/10 08:22:35;;;;;;;;;;;34.60;65.10;;;;;;5017690;28;19909;-74
2021/09/10 08:25:39;;;;;;;;;;;36.10;63.10;;;;;;5015435;28;19956;-74
2021/09/10 08:28:43;;;;;;;;;;;36.50;61.20;;;;;;5011472;28;20351;-72
2021/09/10 08:31:47;;;;;;;;;;;34.60;61.70;;;;;;5020320;28;19913;-73
2021/09/10 08:34:52;;;;;;;;;;;35.60;61.90;;;;;;5025039;28;19913;-74
2021/09/10 08:37:57;;;;;;;;;;;36.10;60.90;;;;;;5014118;28;19933;-74
2021/09/10 08:41:02;;;;;;;;;;;37.30;59.60;;;;;;5027825;28;19917;-72
2021/09/10 08:44:06;;;;;;;;;;;38.90;57.80;;;;;;4995486;28;19913;-72
2021/09/10 08:47:13;;;;;;;;;;;38.90;56.80;;;;;;5012050;28;19909;-71
2021/09/10 08:50:17;;;;;;;;;;;36.20;58.00;;;;;;5012962;28;20276;-71
2021/09/10 08:53:21;;;;;;;;;;;38.00;56.90;;;;;;5014698;28;20352;-72
2021/09/10 08:56:26;;;;;;;;;;;36.90;56.50;;;;;;5014875;28;19913;-71
2021/09/10 08:59:30;;;;;;;;;;;33.80;60.60;;;;;;5015041;28;19921;-72
2021/09/10 09:02:34;;;;;;;;;;;36.10;59.00;;;;;;5013891;28;19909;-73
2021/09/10 09:05:38;;;;;;;;;;;37.70;57.40;;;;;;5019280;28;19913;-71
2021/09/10 09:08:44;;;;;;;;;;;37.20;56.30;;;;;;5034826;28;19905;-73
2021/09/10 09:11:48;;;;;;;;;;;39.20;55.70;;;;;;5032371;28;19911;-74
2021/09/10 09:14:55;;;;;;;;;;;35.90;56.10;;;;;;5011219;28;19916;-73
2021/09/10 09:17:59;;;;;;;;;;;36.60;57.90;;;;;;5015120;28;19910;-73
2021/09/10 09:21:04;;;;;;;;;;;35.40;57.50;;;;;;5020054;28;20360;-73
2021/09/10 09:24:14;;;;;;;;;;;36.70;57.60;;;;;;5027690;28;20500;-72
2021/09/10 09:27:25;;;;;;;;;;;38.70;55.70;;;;;;5010595;28;19928;-74
2021/09/10 09:30:38;;;;;;;;;;;39.70;54.90;;;;;;5022254;28;19910;-74
2021/09/10 09:33:45;;;;;;;;;;;40.50;53.50;;;;;;5019393;28;19910;-71
2021/09/10 09:36:53;;;;;;;;;;;38.60;54.50;;;;;;5012977;28;19909;-73
2021/09/10 09:40:00;;;;;;;;;;;40.80;52.90;;;;;;5008478;28;19913;-74
2021/09/10 09:43:30;;;;;;;;;;;39.70;52.40;;;;;;5011962;28;19910;-73
2021/09/10 09:46:35;;;;;;;;;;;37.90;54.90;;;;;;5013291;28;20096;-71
2021/09/10 09:49:44;;;;;;;;;;;39.90;53.40;;;;;;5011406;28;19917;-72
2021/09/10 09:52:51;;;;;;;;;;;41.10;52.40;;;;;;5011246;28;19909;-72
2021/09/10 09:55:56;;;;;;;;;;;42.60;51.40;;;;;;5012673;28;19910;-72
2021/09/10 09:59:01;;;;;;;;;;;38.10;51.20;;;;;;5011634;28;19921;-72
2021/09/10 10:02:05;;;;;;;;;;;38.00;53.10;;;;;;5011683;28;20376;-73
2021/09/10 10:05:10;;;;;;;;;;;38.10;53.70;;;;;;5024802;28;19905;-71
2021/09/10 10:08:18;;;;;;;;;;;36.60;52.90;;;;;;5032446;28;19913;-73
2021/09/10 10:11:23;;;;;;;;;;;38.10;53.30;;;;;;5021630;28;19917;-71
2021/09/10 10:14:30;;;;;;;;;;;40.60;51.10;;;;;;5012067;28;19909;-72
2021/09/10 10:17:35;;;;;;;;;;;40.40;49.90;;;;;;5012519;28;19910;-74
2021/09/10 10:20:45;;;;;;;;;;;38.00;52.10;;;;;;5012219;28;19929;-74
2021/09/10 10:23:49;;;;;;;;;;;40.00;51.60;;;;;;4998015;28;19921;-72
2021/09/10 10:26:53;;;;;;;;;;;40.20;49.90;;;;;;5012250;28;19910;-72
2021/09/10 10:29:58;;;;;;;;;;;39.00;50.40;;;;;;5024506;28;20193;-72
2021/09/10 10:33:41;;;;;;;;;;;42.20;48.90;;;;;;5030782;28;19909;-73
2021/09/10 10:36:46;;;;;;;;;;;45.60;47.70;;;;;;4989407;28;19949;-74
2021/09/10 10:40:10;;;;;;;;;;;46.40;46.50;;;;;;4972732;28;19918;-74
2021/09/10 10:43:16;;;;;;;;;;;45.20;46.20;;;;;;5031741;28;19909;-73
2021/09/10 10:46:27;;;;;;;;;;;42.70;47.80;;;;;;5023202;28;20280;-73
2021/09/10 10:49:32;;;;;;;;;;;42.60;48.20;;;;;;5016033;28;19913;-73
2021/09/10 10:52:37;;;;;;;;;;;43.60;47.90;;;;;;5020189;28;20367;-73
2021/09/10 10:55:42;;;;;;;;;;;45.00;46.40;;;;;;5011904;28;20357;-74
2021/09/10 10:58:46;;;;;;;;;;;45.00;46.20;;;;;;4992339;28;19914;-74
2021/09/10 11:02:09;;;;;;;;;;;43.90;46.30;;;;;;5030021;28;19909;-73
2021/09/10 11:05:14;;;;;;;;;;;42.20;47.00;;;;;;5027477;28;19909;-72
2021/09/10 11:08:19;;;;;;;;;;;39.50;48.50;;;;;;5011514;28;19905;-73
2021/09/10 11:11:25;;;;;;;;;;;38.20;50.50;;;;;;5018196;28;20361;-73
2021/09/10 11:14:30;;;;;;;;;;;35.40;52.60;;;;;;5011116;28;19906;-74
2021/09/10 11:17:34;;;;;;;;;;;36.70;52.10;;;;;;5011205;28;20096;-74
2021/09/10 11:20:40;;;;;;;;;;;37.10;49.90;;;;;;5012240;28;19914;-74
2021/09/10 11:23:46;;;;;;;;;;;39.70;48.40;;;;;;5011236;28;19917;-73
2021/09/10 11:26:50;;;;;;;;;;;40.50;48.00;;;;;;5016358;28;19906;-75
2021/09/10 11:29:54;;;;;;;;;;;39.50;48.10;;;;;;5020633;28;19914;-74
2021/09/10 11:32:59;;;;;;;;;;;40.60;48.50;;;;;;5016788;28;19909;-74
2021/09/10 11:36:04;;;;;;;;;;;40.40;47.80;;;;;;5030905;28;19909;-75
2021/09/10 11:39:09;;;;;;;;;;;39.10;45.90;;;;;;5012407;28;19913;-74
2021/09/10 11:42:29;;;;;;;;;;;38.70;48.60;;;;;;5016069;28;20159;-71
2021/09/10 11:45:35;;;;;;;;;;;40.00;48.30;;;;;;5010064;28;19914;-74
2021/09/10 11:48:42;;;;;;;;;;;35.90;48.30;;;;;;5011319;28;20296;-74
2021/09/10 11:51:48;;;;;;;;;;;34.60;51.70;;;;;;5017919;28;19909;-73
2021/09/10 11:55:07;;;;;;;;;;;35.00;50.40;;;;;;5014218;28;19909;-74
2021/09/10 11:58:13;;;;;;;;;;;34.50;51.10;;;;;;5023899;28;20683;-75
2021/09/10 12:01:21;;;;;;;;;;;37.60;48.80;;;;;;5012065;28;19920;-74
2021/09/10 12:04:32;;;;;;;;;;;40.20;46.20;;;;;;5010213;28;19909;-75
2021/09/10 12:07:38;;;;;;;;;;;37.10;46.50;;;;;;4990892;28;19914;-74
2021/09/10 12:10:43;;;;;;;;;;;38.00;47.60;;;;;;5016119;28;19909;-75
2021/09/10 12:13:47;;;;;;;;;;;37.80;47.40;;;;;;5014402;28;19916;-74
2021/09/10 12:17:12;;;;;;;;;;;37.70;47.80;;;;;;5017956;28;19916;-73
2021/09/10 12:20:19;;;;;;;;;;;34.60;49.60;;;;;;5006093;28;19921;-73
2021/09/10 12:23:26;;;;;;;;;;;34.00;50.90;;;;;;5013981;28;19909;-73
2021/09/10 12:26:45;;;;;;;;;;;34.20;50.40;;;;;;5022750;28;19909;-73
2021/09/10 12:30:06;;;;;;;;;;;33.20;52.30;;;;;;5019319;28;19909;-71
2021/09/10 12:33:19;;;;;;;;;;;33.40;52.50;;;;;;5011744;28;19909;-73
2021/09/10 12:36:26;;;;;;;;;;;34.70;49.90;;;;;;5010769;28;19909;-72
2021/09/10 12:39:32;;;;;;;;;;;35.60;49.70;;;;;;4991316;28;19913;-73
2021/09/10 12:42:38;;;;;;;;;;;34.70;47.60;;;;;;5016322;28;19909;-73
2021/09/10 12:45:43;;;;;;;;;;;34.10;50.80;;;;;;5019477;28;19913;-71
2021/09/10 12:48:48;;;;;;;;;;;34.60;51.80;;;;;;5009982;28;19917;-73
2021/09/10 12:51:55;;;;;;;;;;;36.50;50.90;;;;;;5012869;28;19952;-71
2021/09/10 12:55:04;;;;;;;;;;;38.40;48.50;;;;;;5029720;28;20271;-73
2021/09/10 12:58:09;;;;;;;;;;;36.90;47.60;;;;;;5023255;28;19913;-73
2021/09/10 13:01:15;;;;;;;;;;;34.70;50.90;;;;;;5010757;28;19917;-73
2021/09/10 13:04:19;;;;;;;;;;;33.30;52.90;;;;;;5007807;28;19909;-73
2021/09/10 13:07:28;;;;;;;;;;;33.70;52.40;;;;;;5008717;28;19909;-73
2021/09/10 13:10:32;;;;;;;;;;;33.00;53.70;;;;;;5009746;28;19914;-73
2021/09/10 13:13:36;;;;;;;;;;;32.90;54.60;;;;;;5010523;28;19921;-74
2021/09/10 13:16:43;;;;;;;;;;;34.40;53.20;;;;;;4991601;28;19909;-73
2021/09/10 13:19:47;;;;;;;;;;;37.60;51.30;;;;;;4993735;28;19913;-73
2021/09/10 13:22:56;;;;;;;;;;;39.00;49.60;;;;;;5015480;28;19913;-73
2021/09/10 13:26:02;;;;;;;;;;;39.70;48.90;;;;;;5022152;28;20364;-74
2021/09/10 13:29:08;;;;;;;;;;;38.20;49.90;;;;;;5016260;28;19913;-74
2021/09/10 13:32:14;;;;;;;;;;;38.10;50.20;;;;;;5030740;28;19913;-74
2021/09/10 13:35:24;;;;;;;;;;;38.10;50.20;;;;;;5016962;28;20283;-73
2021/09/10 13:38:27;;;;;;;;;;;38.10;49.90;;;;;;5006447;28;20355;-73
2021/09/10 13:41:33;;;;;;;;;;;40.00;48.80;;;;;;5014569;28;19924;-73
2021/09/10 13:44:37;;;;;;;;;;;41.20;47.80;;;;;;5020857;28;20268;-73
2021/09/10 13:47:42;;;;;;;;;;;42.40;47.20;;;;;;5017665;28;19913;-74
2021/09/10 13:50:48;;;;;;;;;;;41.40;47.20;;;;;;5024216;28;19921;-73
2021/09/10 13:53:52;;;;;;;;;;;36.60;49.40;;;;;;5013103;28;19917;-73
2021/09/10 13:56:56;;;;;;;;;;;36.60;50.70;;;;;;5022219;28;19909;-73
2021/09/10 14:00:00;;;;;;;;;;;37.10;50.60;;;;;;5012495;28;20284;-73
2021/09/10 14:03:06;;;;;;;;;;;36.80;51.30;;;;;;5020861;28;19909;-73
2021/09/10 14:06:12;;;;;;;;;;;36.70;51.40;;;;;;5028548;28;20292;-74
2021/09/10 14:09:18;;;;;;;;;;;37.60;50.70;;;;;;5016447;28;19909;-73
2021/09/10 14:12:22;;;;;;;;;;;38.50;50.20;;;;;;5020070;28;20288;-74
2021/09/10 14:15:27;;;;;;;;;;;38.40;49.50;;;;;;5018350;28;19913;-74
2021/09/10 14:18:33;;;;;;;;;;;38.00;50.10;;;;;;5024579;28;20379;-73
2021/09/10 14:21:37;;;;;;;;;;;37.60;50.30;;;;;;5010525;28;19914;-73
2021/09/10 14:24:45;;;;;;;;;;;36.80;50.70;;;;;;5011869;28;19909;-73
2021/09/10 14:27:52;;;;;;;;;;;36.00;51.70;;;;;;5011848;28;19989;-73
2021/09/10 14:30:56;;;;;;;;;;;36.50;51.60;;;;;;5019929;28;20303;-73
2021/09/10 14:34:02;;;;;;;;;;;36.50;51.10;;;;;;5017209;28;19909;-72
2021/09/10 14:37:06;;;;;;;;;;;36.40;50.90;;;;;;5021138;28;19912;-73
2021/09/10 14:40:12;;;;;;;;;;;36.60;50.90;;;;;;5017057;28;19921;-73
2021/09/10 14:43:17;;;;;;;;;;;36.00;51.10;;;;;;5013201;28;19910;-73
2021/09/10 14:46:22;;;;;;;;;;;35.30;51.90;;;;;;5025638;28;19909;-73
2021/09/10 14:49:26;;;;;;;;;;;34.80;52.20;;;;;;5027704;28;19963;-73
2021/09/10 14:52:30;;;;;;;;;;;34.20;52.40;;;;;;5025858;28;19913;-73
2021/09/10 14:55:33;;;;;;;;;;;33.80;52.60;;;;;;5015559;28;20276;-72
2021/09/10 14:58:38;;;;;;;;;;;33.50;52.90;;;;;;5003405;28;19913;-72
2021/09/10 15:01:42;;;;;;;;;;;33.60;53.00;;;;;;5017963;28;19917;-72
2021/09/10 15:04:46;;;;;;;;;;;33.60;53.30;;;;;;5013081;28;19909;-73
2021/09/10 15:07:50;;;;;;;;;;;33.50;53.00;;;;;;5020320;28;19917;-72
2021/09/10 15:10:54;;;;;;;;;;;33.30;52.30;;;;;;5015890;28;19909;-73
2021/09/10 15:13:58;;;;;;;;;;;33.30;52.80;;;;;;4992089;28;19909;-73
2021/09/10 15:17:06;;;;;;;;;;;33.50;52.60;;;;;;5024684;28;19916;-72
2021/09/10 15:20:10;;;;;;;;;;;33.60;52.60;;;;;;5031841;28;20280;-72
2021/09/10 15:23:15;;;;;;;;;;;33.80;52.10;;;;;;5031349;28;19917;-72
2021/09/10 15:26:19;;;;;;;;;;;34.30;51.40;;;;;;5031358;28;19909;-73
2021/09/10 15:29:23;;;;;;;;;;;34.30;51.40;;;;;;5029998;28;19909;-73
2021/09/10 15:32:35;;;;;;;;;;;34.20;51.60;;;;;;5030688;28;20282;-73
2021/09/10 15:35:40;;;;;;;;;;;34.00;52.10;;;;;;5031213;28;20344;-72
2021/09/10 15:38:46;;;;;;;;;;;33.10;51.70;;;;;;5030290;28;19913;-73
2021/09/10 15:41:50;;;;;;;;;;;32.80;52.10;;;;;;5025724;28;19913;-72
2021/09/10 15:44:54;;;;;;;;;;;32.40;52.70;;;;;;5011011;28;19910;-73
2021/09/10 15:47:58;;;;;;;;;;;32.20;53.30;;;;;;5010790;28;19913;-72
2021/09/10 15:51:03;;;;;;;;;;;32.10;53.40;;;;;;5010965;28;19913;-73
2021/09/10 15:54:06;;;;;;;;;;;31.90;53.60;;;;;;5011112;28;19909;-72
2021/09/10 15:57:12;;;;;;;;;;;31.70;53.70;;;;;;5010819;28;19920;-72
2021/09/10 16:00:17;;;;;;;;;;;31.50;54.30;;;;;;5010784;28;19913;-72
2021/09/10 16:03:22;;;;;;;;;;;31.40;54.40;;;;;;5010872;28;19910;-72
2021/09/10 16:06:26;;;;;;;;;;;31.30;54.90;;;;;;5011234;28;19914;-72
2021/09/10 16:09:31;;;;;;;;;;;31.20;54.80;;;;;;5010737;28;20356;-72
2021/09/10 16:12:35;;;;;;;;;;;31.10;54.80;;;;;;5010224;28;20503;-72
2021/09/10 16:15:39;;;;;;;;;;;30.90;55.00;;;;;;5010199;28;19909;-73
2021/09/10 16:18:43;;;;;;;;;;;30.90;55.20;;;;;;5010193;28;20297;-72
2021/09/10 16:21:47;;;;;;;;;;;30.80;55.60;;;;;;5009896;28;19917;-72
2021/09/10 16:24:51;;;;;;;;;;;30.70;55.90;;;;;;5010516;28;19909;-73
2021/09/10 16:27:55;;;;;;;;;;;30.60;56.10;;;;;;5010203;28;19913;-72
2021/09/10 16:30:59;;;;;;;;;;;30.50;56.00;;;;;;5009818;28;19909;-72
2021/09/10 16:34:03;;;;;;;;;;;30.30;55.80;;;;;;5010838;28;19910;-72
2021/09/10 16:37:08;;;;;;;;;;;30.10;56.30;;;;;;5009898;28;19913;-72
2021/09/10 16:40:12;;;;;;;;;;;30.10;56.50;;;;;;5010373;28;19914;-72
2021/09/10 16:43:16;;;;;;;;;;;30.00;56.80;;;;;;5017122;28;19910;-73
2021/09/10 16:46:20;;;;;;;;;;;29.90;57.40;;;;;;5008790;28;19913;-72
2021/09/10 16:49:23;;;;;;;;;;;29.80;57.60;;;;;;5006944;28;19914;-72
2021/09/10 16:52:27;;;;;;;;;;;29.70;58.10;;;;;;5013531;28;20280;-72
2021/09/10 16:55:32;;;;;;;;;;;29.50;58.30;;;;;;5013856;28;20221;-72
2021/09/10 16:58:37;;;;;;;;;;;29.30;58.50;;;;;;5013623;28;20268;-72
2021/09/10 17:01:41;;;;;;;;;;;29.00;59.10;;;;;;5013476;28;19913;-72
2021/09/10 17:04:46;;;;;;;;;;;28.70;59.60;;;;;;4994014;28;20273;-72
2021/09/10 17:07:50;;;;;;;;;;;28.50;60.40;;;;;;4994120;28;20400;-73
2021/09/10 17:10:54;;;;;;;;;;;28.00;61.80;;;;;;4993989;28;19909;-72
2021/09/10 17:13:58;;;;;;;;;;;27.60;63.00;;;;;;4993800;28;19920;-73
2021/09/10 17:17:02;;;;;;;;;;;27.30;63.60;;;;;;4993974;28;20292;-72
2021/09/10 17:20:06;;;;;;;;;;;27.00;64.00;;;;;;5004449;28;19913;-73
2021/09/10 17:23:10;;;;;;;;;;;26.70;64.60;;;;;;5013075;28;20206;-72
2021/09/10 17:26:15;;;;;;;;;;;26.50;65.10;;;;;;5013168;28;19917;-72
2021/09/10 17:29:19;;;;;;;;;;;26.40;65.20;;;;;;5023673;28;19914;-73
2021/09/10 17:32:22;;;;;;;;;;;26.20;65.50;;;;;;5013307;28;19909;-72
2021/09/10 17:35:27;;;;;;;;;;;26.10;65.70;;;;;;5013332;28;20140;-73
2021/09/10 17:38:31;;;;;;;;;;;26.00;66.20;;;;;;5012947;28;19909;-72
2021/09/10 17:41:35;;;;;;;;;;;25.90;66.30;;;;;;5012748;28;19914;-71
2021/09/10 17:44:40;;;;;;;;;;;25.80;66.40;;;;;;5012986;28;19910;-73
2021/09/10 17:47:44;;;;;;;;;;;25.70;66.60;;;;;;5012984;28;20356;-73
2021/09/10 17:50:48;;;;;;;;;;;25.70;66.80;;;;;;5012576;28;20287;-73
2021/09/10 17:53:52;;;;;;;;;;;25.70;66.80;;;;;;5012813;28;19913;-73
2021/09/10 17:56:56;;;;;;;;;;;25.60;66.80;;;;;;5013114;28;19909;-73